VLG6311 EGLL-LEBB
Flight info
| Callsign | VLG6311 |
|---|---|
| Flight time | N/A |
| Altitude | 30000 |
| Route | GASGU N866 SAM M195 MARUK N621 LELNA DCT DOMOK UT260 UPALO UN862 TERPO DCT PEXOD DCT NENEM N867 MAPAX |
| Aircraft | A320/M-SDFGHILORVWXY/LB1 |
Departure
| Time | 2026-04-30 14:38 |
|---|---|
| Airport | London Heathrow Airport (EGLL) |
Arrival
| Time | N/A |
|---|---|
| Airport | Bilbao Airport (LEBB) |
| Time | Latitude | Longitude | Altitude | Speed | Heading |
|---|---|---|---|---|---|
| 2026-04-30 14:02 | 51.46174 | -0.44420 | 86 ft | 0 kts | 294° |
| 2026-04-30 14:28 | 51.46163 | -0.44380 | 111 ft | 4 kts | 293° |
| 2026-04-30 14:28 | 51.46153 | -0.44342 | 89 ft | 4 kts | 309° |
| 2026-04-30 14:28 | 51.46134 | -0.44325 | 89 ft | 4 kts | 13° |
| 2026-04-30 14:28 | 51.46115 | -0.44336 | 89 ft | 4 kts | 23° |
| 2026-04-30 14:29 | 51.46110 | -0.44339 | 88 ft | 0 kts | 23° |
| 2026-04-30 14:31 | 51.46151 | -0.44312 | 87 ft | 9 kts | 23° |
| 2026-04-30 14:31 | 51.46214 | -0.44269 | 88 ft | 11 kts | 23° |
| 2026-04-30 14:32 | 51.46327 | -0.44344 | 86 ft | 14 kts | 269° |
| 2026-04-30 14:32 | 51.46326 | -0.44449 | 86 ft | 15 kts | 270° |
| 2026-04-30 14:32 | 51.46322 | -0.44626 | 86 ft | 17 kts | 258° |
| 2026-04-30 14:33 | 51.46318 | -0.44819 | 89 ft | 18 kts | 270° |
| 2026-04-30 14:33 | 51.46316 | -0.45261 | 86 ft | 22 kts | 269° |
| 2026-04-30 14:33 | 51.46316 | -0.45508 | 90 ft | 23 kts | 270° |
| 2026-04-30 14:34 | 51.46324 | -0.45769 | 86 ft | 24 kts | 271° |
| 2026-04-30 14:34 | 51.46323 | -0.46048 | 86 ft | 26 kts | 268° |
| 2026-04-30 14:34 | 51.46321 | -0.46338 | 86 ft | 24 kts | 269° |
| 2026-04-30 14:34 | 51.46320 | -0.46612 | 86 ft | 26 kts | 270° |
| 2026-04-30 14:35 | 51.46322 | -0.47189 | 86 ft | 22 kts | 270° |
| 2026-04-30 14:35 | 51.46332 | -0.47386 | 90 ft | 17 kts | 285° |
| 2026-04-30 14:35 | 51.46339 | -0.47584 | 89 ft | 18 kts | 265° |
| 2026-04-30 14:36 | 51.46286 | -0.47781 | 90 ft | 21 kts | 242° |
| 2026-04-30 14:36 | 51.46251 | -0.47997 | 89 ft | 20 kts | 269° |
| 2026-04-30 14:36 | 51.46250 | -0.48241 | 85 ft | 24 kts | 269° |
| 2026-04-30 14:36 | 51.46248 | -0.48499 | 86 ft | 20 kts | 269° |
| 2026-04-30 14:37 | 51.46301 | -0.48704 | 89 ft | 22 kts | 321° |
| 2026-04-30 14:37 | 51.46412 | -0.48750 | 86 ft | 12 kts | 1° |
| 2026-04-30 14:37 | 51.46479 | -0.48649 | 88 ft | 23 kts | 82° |
| 2026-04-30 14:37 | 51.46480 | -0.48038 | 87 ft | 87 kts | 90° |
| 2026-04-30 14:38 | 51.46486 | -0.46736 | 91 ft | 137 kts | 89° |
| 2026-04-30 14:38 | 51.46501 | -0.45110 | 483 ft | 150 kts | 92° |
| 2026-04-30 14:38 | 51.46487 | -0.43444 | 1200 ft | 149 kts | 94° |
| 2026-04-30 14:38 | 51.46441 | -0.41774 | 1879 ft | 149 kts | 103° |
| 2026-04-30 14:39 | 51.45906 | -0.40211 | 2171 ft | 174 kts | 126° |
| 2026-04-30 14:39 | 51.45116 | -0.38586 | 2444 ft | 197 kts | 126° |
| 2026-04-30 14:39 | 51.44229 | -0.36722 | 2888 ft | 221 kts | 126° |
| 2026-04-30 14:40 | 51.41803 | -0.33266 | 4398 ft | 244 kts | 157° |
| 2026-04-30 14:40 | 51.40109 | -0.32778 | 5292 ft | 253 kts | 180° |
| 2026-04-30 14:40 | 51.38388 | -0.33489 | 6198 ft | 263 kts | 204° |
| 2026-04-30 14:40 | 51.36902 | -0.35267 | 7065 ft | 270 kts | 217° |
| 2026-04-30 14:41 | 51.35500 | -0.37291 | 7931 ft | 273 kts | 218° |
| 2026-04-30 14:41 | 51.34106 | -0.39392 | 8764 ft | 278 kts | 222° |
| 2026-04-30 14:41 | 51.32953 | -0.41948 | 9548 ft | 288 kts | 233° |
| 2026-04-30 14:41 | 51.31851 | -0.44703 | 10330 ft | 292 kts | 232° |
| 2026-04-30 14:42 | 51.30722 | -0.47531 | 10657 ft | 314 kts | 233° |
| 2026-04-30 14:42 | 51.29507 | -0.50568 | 10926 ft | 333 kts | 233° |
| 2026-04-30 14:42 | 51.28250 | -0.53724 | 11532 ft | 340 kts | 233° |
| 2026-04-30 14:42 | 51.26893 | -0.57145 | 12253 ft | 345 kts | 233° |
| 2026-04-30 14:43 | 51.25666 | -0.60229 | 12897 ft | 349 kts | 233° |
| 2026-04-30 14:43 | 51.24356 | -0.63507 | 13572 ft | 352 kts | 233° |
| 2026-04-30 14:43 | 51.23030 | -0.66821 | 14213 ft | 356 kts | 233° |
| 2026-04-30 14:43 | 51.21694 | -0.70152 | 14808 ft | 359 kts | 233° |
| 2026-04-30 14:44 | 51.20340 | -0.73522 | 15397 ft | 361 kts | 233° |
| 2026-04-30 14:44 | 51.18960 | -0.76876 | 16002 ft | 362 kts | 229° |
| 2026-04-30 14:44 | 51.17174 | -0.79658 | 16585 ft | 358 kts | 212° |
| 2026-04-30 14:44 | 51.15122 | -0.81990 | 17210 ft | 359 kts | 212° |
| 2026-04-30 14:45 | 51.13067 | -0.84292 | 17823 ft | 362 kts | 211° |
| 2026-04-30 14:45 | 51.10999 | -0.86597 | 18436 ft | 364 kts | 212° |
| 2026-04-30 14:45 | 51.08916 | -0.88914 | 18975 ft | 367 kts | 211° |
| 2026-04-30 14:45 | 51.06819 | -0.91243 | 19494 ft | 370 kts | 211° |
| 2026-04-30 14:46 | 51.04701 | -0.93599 | 20025 ft | 373 kts | 211° |
| 2026-04-30 14:46 | 51.02570 | -0.95972 | 20590 ft | 375 kts | 210° |
| 2026-04-30 14:46 | 51.00427 | -0.98356 | 21147 ft | 376 kts | 210° |
| 2026-04-30 14:46 | 50.98278 | -1.00743 | 21653 ft | 379 kts | 210° |
| 2026-04-30 14:47 | 50.96110 | -1.03148 | 22131 ft | 381 kts | 210° |
| 2026-04-30 14:47 | 50.93926 | -1.05567 | 22648 ft | 384 kts | 210° |
| 2026-04-30 14:47 | 50.91731 | -1.07998 | 23114 ft | 386 kts | 210° |
| 2026-04-30 14:47 | 50.89519 | -1.10446 | 23595 ft | 389 kts | 210° |
| 2026-04-30 14:48 | 50.87294 | -1.12906 | 24017 ft | 391 kts | 210° |
| 2026-04-30 14:48 | 50.85056 | -1.15385 | 24410 ft | 394 kts | 210° |
| 2026-04-30 14:48 | 50.82815 | -1.17896 | 24803 ft | 397 kts | 210° |
| 2026-04-30 14:48 | 50.80560 | -1.20438 | 25200 ft | 399 kts | 210° |
| 2026-04-30 14:49 | 50.78295 | -1.22994 | 25591 ft | 401 kts | 210° |
| 2026-04-30 14:49 | 50.76021 | -1.25561 | 25976 ft | 403 kts | 210° |
| 2026-04-30 14:49 | 50.73732 | -1.28140 | 26369 ft | 405 kts | 210° |
| 2026-04-30 14:49 | 50.71394 | -1.30764 | 26755 ft | 407 kts | 210° |
| 2026-04-30 14:50 | 50.66747 | -1.35959 | 27483 ft | 412 kts | 210° |
| 2026-04-30 14:50 | 50.64401 | -1.38569 | 27854 ft | 414 kts | 210° |
| 2026-04-30 14:51 | 50.59658 | -1.43832 | 28555 ft | 420 kts | 212° |
| 2026-04-30 14:51 | 50.57264 | -1.46491 | 28909 ft | 423 kts | 212° |
| 2026-04-30 14:51 | 50.52429 | -1.51848 | 29628 ft | 427 kts | 212° |
| 2026-04-30 14:52 | 50.49993 | -1.54535 | 29969 ft | 430 kts | 212° |
| 2026-04-30 14:52 | 50.45071 | -1.59964 | 30608 ft | 434 kts | 212° |
| 2026-04-30 14:52 | 50.42602 | -1.62687 | 30952 ft | 434 kts | 212° |
| 2026-04-30 14:53 | 50.37672 | -1.68126 | 31814 ft | 432 kts | 212° |
| 2026-04-30 14:53 | 50.35217 | -1.70830 | 32236 ft | 431 kts | 213° |
| 2026-04-30 14:54 | 50.30283 | -1.76231 | 33118 ft | 428 kts | 212° |
| 2026-04-30 14:54 | 50.25404 | -1.81549 | 34005 ft | 426 kts | 212° |
| 2026-04-30 14:55 | 50.20568 | -1.86829 | 34776 ft | 423 kts | 213° |
| 2026-04-30 14:55 | 50.18165 | -1.89455 | 35053 ft | 423 kts | 213° |
| 2026-04-30 14:56 | 50.08472 | -1.99835 | 35121 ft | 423 kts | 212° |
| 2026-04-30 14:57 | 50.01124 | -2.07425 | 35098 ft | 421 kts | 206° |
| 2026-04-30 14:57 | 49.95591 | -2.10328 | 35098 ft | 417 kts | 187° |
| 2026-04-30 14:58 | 49.90741 | -2.10614 | 35095 ft | 417 kts | 179° |
| 2026-04-30 14:58 | 49.82019 | -2.10555 | 35079 ft | 418 kts | 179° |
| 2026-04-30 15:00 | 49.67627 | -2.08384 | 35089 ft | 418 kts | 164° |
| 2026-04-30 15:01 | 49.56444 | -2.03469 | 35096 ft | 418 kts | 164° |
| 2026-04-30 15:01 | 49.48051 | -1.99808 | 35099 ft | 418 kts | 164° |
| 2026-04-30 15:02 | 49.42452 | -1.97374 | 35096 ft | 418 kts | 163° |
| 2026-04-30 15:03 | 49.28440 | -1.91272 | 35090 ft | 417 kts | 164° |
| 2026-04-30 15:04 | 49.14479 | -1.85249 | 35086 ft | 417 kts | 163° |
| 2026-04-30 15:06 | 49.00522 | -1.79260 | 35066 ft | 417 kts | 164° |
| 2026-04-30 15:07 | 48.89247 | -1.75190 | 35068 ft | 418 kts | 177° |
| 2026-04-30 15:08 | 48.77603 | -1.75056 | 35063 ft | 419 kts | 178° |
| 2026-04-30 15:09 | 48.63034 | -1.74847 | 35075 ft | 419 kts | 178° |
| 2026-04-30 15:10 | 48.51342 | -1.74710 | 35068 ft | 419 kts | 178° |
| 2026-04-30 15:11 | 48.33837 | -1.74498 | 35064 ft | 420 kts | 179° |
| 2026-04-30 15:13 | 48.19209 | -1.74320 | 35064 ft | 421 kts | 179° |
| 2026-04-30 15:14 | 47.98988 | -1.78242 | 35060 ft | 424 kts | 198° |
| 2026-04-30 15:17 | 47.73808 | -1.91127 | 35071 ft | 426 kts | 198° |
| 2026-04-30 15:18 | 47.59428 | -1.95505 | 35063 ft | 425 kts | 175° |
| 2026-04-30 15:19 | 47.50576 | -1.94549 | 35061 ft | 426 kts | 175° |